Archbold, OH (43502)

10:34 PM EDT on August 29, 2015 (GMT -0400)
3 Miles ESE Archbold, OH | | Change Station
CLOSE
Current Station
Personal Weather Station
Location: Archbold, OH
Elevation: 743 ft
Nearby Weather Stations

Elev 743 ft 41.49 °N, 84.26 °W | Updated 25 seconds ago

Rain
Rain
69.2 °F
Feels Like 69.2 °F
N
1.0
Wind Variable Wind from NW
Gusts 3.0 mph

Today
High -- | Low -- °F
--% Chance of Precip.
Yesterday
High -- | Low -- °F
Precip. -- in
7:00 AM 8:15 PM
Full, 100% visible
Pressure 30.08 in
Visibility 2.5 miles
Clouds Few 3100 ft
Mostly Cloudy 4700 ft
Mostly Cloudy 9000 ft
Dew Point 68 °F
Humidity 97%
Rainfall 0.05 in
Snow Depth Not available.
UV 0 out of 12
Pollen 8.60 out of 12
Air Quality Not available.
Flu Activity Not available.
METAR KUSE 300215Z AUTO 01004KT 2 1/2SM -DZ FEW031 BKN047 BKN090 21/21 A3008 RMK AO2
Pressure 30.08 in
Visibility 2.5 miles
Clouds Few 3100 ft
Mostly Cloudy 4700 ft
Mostly Cloudy 9000 ft
Dew Point 68 °F
Humidity 97%
Rainfall 0.05 in
Snow Depth Not available.
UV 0 out of 12
Pollen 8.60 out of 12
Air Quality Not available.
Flu Activity Not available.
METAR KUSE 300215Z AUTO 01004KT 2 1/2SM -DZ FEW031 BKN047 BKN090 21/21 A3008 RMK AO2

10-Day Weather Forecast

×

Almanac

Astronomy

Aug. 29, 2015 Rise Set
Actual Time
Civil Twilight
Nautical Twilight
Astronomical Twilight
Moon
Length of Visible Light
Length of Day
Tomorrow will be .
, % of the Moon is Illuminated

Today's Extremes

State Highs State Lows

Community

WunderPhotos

Upload Photos

1,850,852 photos uploaded!

WunderBlogs® & News

Nearby

Air Quality

  Air Quality AQ Index Pollutant
Not available.

Snow Depth

Station Depth Elevation

Earthquake Activity

City Distance Mag. Time & Date
Minimum magnitude displayed is 2.5.

Coastal Water Temperatures

Place Temperature

Stations

Nearby Weather Stations

Station Location Temp. Windchill Dew Point Humidity Wind Precip. Elev Updated Type